Time;durP1;ratioP1;P1;durP2;ratioP2;P2;SDS_P1;SDS_P2;PMS_P1;PMS_P2;Temp;Humidity;BMP_temperature;BMP_pressure;BME280_temperature;BME280_humidity;BME280_pressure;Samples;Min_cycle;Max_cycle;Signal;HPM_P1;HPM_P2
2024/01/22 00:01:58;;;;;;;1.13;1.02;;;11.50;55.30;;;;;;5093691;28;20119;-69
2024/01/22 00:04:23;;;;;;;0.52;0.52;;;11.60;55.20;;;;;;5093378;28;20115;-69
2024/01/22 00:06:52;;;;;;;0.60;0.60;;;11.60;55.20;;;;;;5093328;28;20024;-69
2024/01/22 00:09:17;;;;;;;0.75;0.75;;;11.60;55.20;;;;;;5093650;28;20032;-69
2024/01/22 00:11:43;;;;;;;0.70;0.65;;;11.70;55.00;;;;;;5093534;28;20518;-69
2024/01/22 00:14:09;;;;;;;0.70;0.70;;;11.80;55.00;;;;;;5093440;28;20166;-69
2024/01/22 00:16:39;;;;;;;0.52;0.52;;;11.70;55.20;;;;;;5093350;28;20020;-69
2024/01/22 00:19:08;;;;;;;1.88;1.27;;;11.70;55.20;;;;;;5092918;28;20039;-69
2024/01/22 00:21:33;;;;;;;0.55;0.55;;;11.80;55.40;;;;;;5093168;28;20487;-69
2024/01/22 00:23:59;;;;;;;0.52;0.52;;;11.80;55.50;;;;;;5093356;28;20031;-69
2024/01/22 00:26:24;;;;;;;0.50;0.50;;;11.80;55.90;;;;;;5093158;28;20024;-69
2024/01/22 00:28:50;;;;;;;0.55;0.55;;;11.70;56.50;;;;;;5093147;28;20040;-69
2024/01/22 00:31:15;;;;;;;0.60;0.60;;;11.60;57.00;;;;;;5092984;28;20017;-67
2024/01/22 00:33:45;;;;;;;0.50;0.50;;;11.50;57.20;;;;;;5092825;28;20040;-67
2024/01/22 00:36:14;;;;;;;4.22;1.77;;;11.50;58.00;;;;;;5092746;28;20483;-66
2024/01/22 00:38:43;;;;;;;0.55;0.55;;;11.50;58.30;;;;;;5092764;28;20468;-67
2024/01/22 00:41:08;;;;;;;0.88;0.88;;;11.40;58.50;;;;;;5092687;28;20479;-68
2024/01/22 00:43:35;;;;;;;0.60;0.60;;;11.50;58.90;;;;;;5092547;28;20046;-68
2024/01/22 00:46:01;;;;;;;0.50;0.50;;;11.50;59.10;;;;;;5092663;28;20021;-68
2024/01/22 00:48:27;;;;;;;1.20;1.10;;;11.50;59.30;;;;;;5092758;28;20024;-67
2024/01/22 00:50:53;;;;;;;8.00;1.48;;;11.50;59.30;;;;;;5092565;28;20518;-67
2024/01/22 00:53:18;;;;;;;0.50;0.50;;;11.60;59.10;;;;;;5092584;28;20028;-68
2024/01/22 00:55:44;;;;;;;0.65;0.65;;;11.70;59.10;;;;;;5092488;28;20523;-67
2024/01/22 00:58:09;;;;;;;0.82;0.82;;;11.70;59.10;;;;;;5092378;28;20467;-68
2024/01/22 01:00:35;;;;;;;0.50;0.50;;;11.70;59.00;;;;;;5092586;28;20111;-68
2024/01/22 01:03:00;;;;;;;4.47;1.77;;;11.70;59.00;;;;;;5092460;28;20444;-67
2024/01/22 01:05:26;;;;;;;0.50;0.50;;;11.80;59.00;;;;;;5092264;28;20039;-68
2024/01/22 01:07:51;;;;;;;0.60;0.60;;;11.80;58.80;;;;;;5092194;28;20024;-67
2024/01/22 01:10:17;;;;;;;0.70;0.70;;;11.90;58.80;;;;;;5092085;28;20106;-67
2024/01/22 01:12:42;;;;;;;0.50;0.50;;;12.00;58.50;;;;;;5092220;28;20383;-68
2024/01/22 01:15:09;;;;;;;0.50;0.50;;;12.00;58.30;;;;;;5092649;28;20085;-67
2024/01/22 01:17:36;;;;;;;0.60;0.60;;;12.00;57.80;;;;;;5092331;28;20032;-67
2024/01/22 01:20:03;;;;;;;0.60;0.60;;;12.10;58.00;;;;;;5092623;28;20510;-67
2024/01/22 01:22:32;;;;;;;0.55;0.55;;;12.20;57.70;;;;;;5092335;28;20099;-68
2024/01/22 01:24:58;;;;;;;0.55;0.55;;;12.20;57.80;;;;;;5092247;28;20038;-68
2024/01/22 01:27:23;;;;;;;0.70;0.70;;;12.30;57.50;;;;;;5073860;28;20016;-68
2024/01/22 01:29:49;;;;;;;0.70;0.70;;;12.30;57.80;;;;;;5092243;28;20550;-68
2024/01/22 01:32:14;;;;;;;0.85;0.85;;;12.30;57.70;;;;;;5092048;28;20089;-68
2024/01/22 01:34:40;;;;;;;0.40;0.40;;;12.30;57.50;;;;;;5092096;28;20098;-68
2024/01/22 01:37:05;;;;;;;0.40;0.40;;;12.30;57.90;;;;;;5091939;28;20024;-67
2024/01/22 01:39:31;;;;;;;1.15;1.13;;;12.30;57.90;;;;;;5091950;28;20036;-68
2024/01/22 01:41:56;;;;;;;0.60;0.60;;;12.40;57.60;;;;;;5091607;28;20020;-68
2024/01/22 01:44:47;;;;;;;0.50;0.50;;;12.50;57.00;;;;;;5091348;28;20061;-67
2024/01/22 01:47:13;;;;;;;0.50;0.50;;;12.50;57.20;;;;;;5091648;28;20012;-67
2024/01/22 01:49:38;;;;;;;1.33;1.25;;;12.60;56.90;;;;;;5092016;28;20478;-67
2024/01/22 01:52:04;;;;;;;0.57;0.57;;;12.70;56.60;;;;;;5091672;28;20039;-68
2024/01/22 01:54:30;;;;;;;0.73;0.73;;;12.80;56.40;;;;;;5092043;28;20463;-68
2024/01/22 01:56:56;;;;;;;1.35;1.25;;;12.80;56.20;;;;;;5091460;28;20052;-68
2024/01/22 01:59:23;;;;;;;1.05;1.05;;;12.80;56.30;;;;;;5091936;28;20039;-68
2024/01/22 02:01:48;;;;;;;0.50;0.50;;;12.90;56.20;;;;;;5091380;28;20393;-68
2024/01/22 02:04:14;;;;;;;0.57;0.57;;;12.90;55.80;;;;;;5091210;28;20038;-68
2024/01/22 02:06:40;;;;;;;0.55;0.55;;;13.00;55.70;;;;;;5091657;28;20432;-68
2024/01/22 02:09:06;;;;;;;0.55;0.55;;;13.10;55.70;;;;;;5091614;28;20039;-68
2024/01/22 02:11:32;;;;;;;0.70;0.70;;;13.10;55.30;;;;;;5091381;28;20016;-68
2024/01/22 02:13:57;;;;;;;0.50;0.50;;;13.10;55.50;;;;;;5073363;28;20066;-68
2024/01/22 02:16:23;;;;;;;0.50;0.50;;;13.20;55.30;;;;;;5091324;28;20024;-68
2024/01/22 02:18:48;;;;;;;0.50;0.50;;;13.20;55.00;;;;;;5091333;28;20115;-68
2024/01/22 02:21:14;;;;;;;0.50;0.50;;;13.30;54.80;;;;;;5091537;28;20483;-68
2024/01/22 02:23:40;;;;;;;0.50;0.50;;;13.30;54.50;;;;;;5091635;28;20043;-68
2024/01/22 02:26:05;;;;;;;0.60;0.60;;;13.30;54.50;;;;;;5091556;28;20035;-68
2024/01/22 02:28:32;;;;;;;2.78;1.67;;;13.30;54.30;;;;;;5091255;28;20043;-68
2024/01/22 02:30:58;;;;;;;0.50;0.50;;;13.40;54.50;;;;;;5091060;28;20072;-68
2024/01/22 02:33:24;;;;;;;0.60;0.60;;;13.50;54.10;;;;;;5091194;28;20025;-68
2024/01/22 02:35:49;;;;;;;0.85;0.85;;;13.50;54.00;;;;;;5091052;28;20099;-68
2024/01/22 02:38:15;;;;;;;0.50;0.50;;;13.40;53.90;;;;;;5091075;28;20544;-68
2024/01/22 02:40:40;;;;;;;0.60;0.60;;;13.50;53.50;;;;;;5091428;28;20024;-68
2024/01/22 02:43:06;;;;;;;0.50;0.50;;;13.50;53.60;;;;;;5091020;28;20126;-68
2024/01/22 02:45:31;;;;;;;1.55;1.33;;;13.60;53.40;;;;;;5090836;28;20024;-68
2024/01/22 02:47:57;;;;;;;0.50;0.50;;;13.60;53.20;;;;;;5090876;28;20028;-68
2024/01/22 02:50:22;;;;;;;0.50;0.50;;;13.60;53.20;;;;;;5091376;28;20036;-68
2024/01/22 02:52:48;;;;;;;0.50;0.50;;;13.60;53.10;;;;;;5090903;28;20024;-68
2024/01/22 02:55:14;;;;;;;0.50;0.50;;;13.60;52.90;;;;;;5091609;28;20036;-68
2024/01/22 02:57:39;;;;;;;0.50;0.50;;;13.60;53.00;;;;;;5094861;28;20420;-68
2024/01/22 03:00:07;;;;;;;0.60;0.60;;;13.60;53.00;;;;;;5095050;28;20044;-68
2024/01/22 03:02:33;;;;;;;0.68;0.68;;;13.60;52.80;;;;;;5094871;28;20054;-68
2024/01/22 03:04:58;;;;;;;0.50;0.50;;;13.50;53.00;;;;;;5094435;28;20483;-68
2024/01/22 03:07:25;;;;;;;0.50;0.50;;;13.60;52.90;;;;;;5094754;28;20044;-69
2024/01/22 03:09:50;;;;;;;0.60;0.60;;;13.50;52.80;;;;;;5095023;28;20379;-68
2024/01/22 03:12:16;;;;;;;0.63;0.63;;;13.60;52.70;;;;;;5094495;28;20032;-68
2024/01/22 03:14:41;;;;;;;0.50;0.50;;;13.60;52.80;;;;;;5095034;28;20036;-67
2024/01/22 03:17:08;;;;;;;0.60;0.60;;;13.60;52.50;;;;;;5094368;28;20032;-67
2024/01/22 03:19:33;;;;;;;0.50;0.50;;;13.60;52.60;;;;;;5094751;28;20032;-67
2024/01/22 03:21:58;;;;;;;0.50;0.50;;;13.60;52.50;;;;;;5075985;28;20490;-67
2024/01/22 03:24:24;;;;;;;0.50;0.50;;;13.60;52.60;;;;;;5094543;28;20039;-67
2024/01/22 03:26:50;;;;;;;0.52;0.52;;;13.60;52.40;;;;;;5094319;28;20039;-68
2024/01/22 03:29:15;;;;;;;0.60;0.60;;;13.70;52.50;;;;;;5094508;28;20028;-68
2024/01/22 03:31:41;;;;;;;0.50;0.50;;;13.70;52.30;;;;;;5094635;28;20111;-68
2024/01/22 03:34:06;;;;;;;0.50;0.50;;;13.80;52.20;;;;;;5094283;28;20028;-67
2024/01/22 03:36:32;;;;;;;0.55;0.55;;;13.70;52.30;;;;;;5094268;28;20396;-68
2024/01/22 03:38:58;;;;;;;0.50;0.50;;;13.70;52.30;;;;;;5094030;28;20020;-67
2024/01/22 03:41:23;;;;;;;0.70;0.70;;;13.80;52.10;;;;;;5093951;28;20373;-68
2024/01/22 03:43:49;;;;;;;0.50;0.50;;;13.80;52.00;;;;;;5094180;28;20107;-67
2024/01/22 03:46:15;;;;;;;0.50;0.50;;;13.80;52.10;;;;;;5093883;28;20112;-68
2024/01/22 03:48:41;;;;;;;0.60;0.60;;;13.80;52.10;;;;;;5094085;28;20024;-68
2024/01/22 03:51:06;;;;;;;0.40;0.40;;;13.80;51.90;;;;;;5093773;28;20415;-67
2024/01/22 03:53:32;;;;;;;0.60;0.60;;;13.90;52.00;;;;;;5093887;28;20035;-67
2024/01/22 03:55:58;;;;;;;0.55;0.55;;;13.90;51.80;;;;;;5093643;28;20032;-68
2024/01/22 03:58:23;;;;;;;0.50;0.50;;;13.90;51.80;;;;;;5093743;28;20464;-68
2024/01/22 04:00:49;;;;;;;1.02;1.02;;;13.90;51.60;;;;;;5093475;28;20032;-68
2024/01/22 04:03:15;;;;;;;0.50;0.50;;;13.90;51.70;;;;;;5093751;28;20158;-68
2024/01/22 04:05:42;;;;;;;0.50;0.50;;;14.00;51.60;;;;;;5093245;28;20093;-68
2024/01/22 04:08:08;;;;;;;0.40;0.40;;;14.00;51.70;;;;;;5092899;28;20020;-67
2024/01/22 04:10:33;;;;;;;1.23;1.13;;;14.00;51.60;;;;;;5093325;28;20028;-68
2024/01/22 04:12:59;;;;;;;0.50;0.50;;;14.00;51.50;;;;;;5093414;28;20060;-68
2024/01/22 04:15:24;;;;;;;0.45;0.45;;;14.00;51.70;;;;;;5093699;28;20040;-67
2024/01/22 04:17:50;;;;;;;0.60;0.60;;;14.00;51.60;;;;;;5093174;28;20093;-68
2024/01/22 04:20:15;;;;;;;0.45;0.45;;;14.00;51.70;;;;;;5093803;28;20429;-68
2024/01/22 04:22:41;;;;;;;0.57;0.57;;;14.00;51.70;;;;;;5093032;28;20035;-68
2024/01/22 04:25:07;;;;;;;0.55;0.55;;;14.00;51.80;;;;;;5093321;28;20108;-68
2024/01/22 04:27:33;;;;;;;0.50;0.50;;;14.10;51.80;;;;;;5093013;28;20025;-68
2024/01/22 04:29:58;;;;;;;0.50;0.50;;;14.10;51.80;;;;;;5093218;28;20415;-68
2024/01/22 04:32:24;;;;;;;0.50;0.50;;;14.10;51.80;;;;;;5092749;28;20099;-68
2024/01/22 04:34:50;;;;;;;0.50;0.50;;;14.10;52.10;;;;;;5093655;28;20051;-69
2024/01/22 04:37:16;;;;;;;0.60;0.60;;;14.10;52.30;;;;;;5092703;28;20031;-68
2024/01/22 04:39:42;;;;;;;0.50;0.50;;;14.10;53.00;;;;;;5093052;28;20101;-68
2024/01/22 04:42:08;;;;;;;0.50;0.50;;;14.00;54.10;;;;;;5092854;28;20032;-69
2024/01/22 04:44:33;;;;;;;0.55;0.55;;;13.90;55.00;;;;;;5092863;28;20034;-69
2024/01/22 04:46:59;;;;;;;0.50;0.50;;;13.70;56.90;;;;;;5092594;28;20438;-69
2024/01/22 04:49:25;;;;;;;0.55;0.55;;;13.50;58.70;;;;;;5092841;28;20107;-70
2024/01/22 04:51:50;;;;;;;0.40;0.40;;;13.30;60.40;;;;;;5092848;28;20127;-72
2024/01/22 04:54:16;;;;;;;0.50;0.50;;;13.10;61.70;;;;;;5092659;28;20028;-73
2024/01/22 04:56:44;;;;;;;0.65;0.65;;;12.90;63.30;;;;;;5092596;28;20395;-74
2024/01/22 04:59:10;;;;;;;1.25;1.13;;;12.80;63.90;;;;;;5092478;28;20028;-73
2024/01/22 05:01:36;;;;;;;0.80;0.80;;;12.70;64.40;;;;;;5092420;28;20361;-73
2024/01/22 05:04:02;;;;;;;0.50;0.50;;;12.70;64.70;;;;;;5092170;28;20524;-73
2024/01/22 05:06:28;;;;;;;0.50;0.50;;;12.70;65.40;;;;;;5092321;28;20088;-73
2024/01/22 05:08:53;;;;;;;0.50;0.50;;;12.60;66.10;;;;;;5092869;28;20095;-73
2024/01/22 05:11:19;;;;;;;0.50;0.50;;;12.60;67.10;;;;;;5092538;28;20032;-74
2024/01/22 05:13:52;;;;;;;0.50;0.50;;;12.50;67.40;;;;;;5092486;28;20021;-73
2024/01/22 05:16:18;;;;;;;0.50;0.50;;;12.40;67.90;;;;;;5092203;28;20419;-73
2024/01/22 05:18:44;;;;;;;0.50;0.50;;;12.40;68.30;;;;;;5091213;28;20019;-72
2024/01/22 05:21:11;;;;;;;0.60;0.60;;;12.40;68.40;;;;;;5091953;28;20036;-73
2024/01/22 05:23:37;;;;;;;0.47;0.47;;;12.40;68.60;;;;;;5092158;28;20032;-73
2024/01/22 05:26:03;;;;;;;0.50;0.50;;;12.30;68.80;;;;;;5091811;28;20032;-73
2024/01/22 05:28:29;;;;;;;0.50;0.50;;;12.30;69.00;;;;;;5091955;28;20017;-72
2024/01/22 05:30:54;;;;;;;0.50;0.50;;;12.30;69.10;;;;;;5074427;28;20032;-72
2024/01/22 05:33:20;;;;;;;0.43;0.43;;;12.30;69.20;;;;;;5091925;28;20107;-72
2024/01/22 05:35:47;;;;;;;0.60;0.60;;;12.40;69.30;;;;;;5091980;28;20122;-72
2024/01/22 05:38:12;;;;;;;0.50;0.50;;;12.40;69.30;;;;;;5091769;28;20032;-71
2024/01/22 05:40:37;;;;;;;0.45;0.45;;;12.50;69.40;;;;;;5091866;28;20038;-72
2024/01/22 05:43:03;;;;;;;0.90;0.90;;;12.50;69.50;;;;;;5091694;28;20475;-72
2024/01/22 05:45:29;;;;;;;0.50;0.50;;;12.50;69.50;;;;;;5091660;28;20126;-72
2024/01/22 05:47:54;;;;;;;0.50;0.50;;;12.50;69.60;;;;;;5092417;28;20020;-72
2024/01/22 05:50:20;;;;;;;0.40;0.40;;;12.60;69.60;;;;;;5092212;28;20027;-72
2024/01/22 05:52:45;;;;;;;0.60;0.60;;;12.70;69.40;;;;;;5091689;28;20039;-72
2024/01/22 05:55:11;;;;;;;0.40;0.40;;;12.60;69.60;;;;;;5092243;28;20345;-72
2024/01/22 05:57:36;;;;;;;0.50;0.50;;;12.70;69.60;;;;;;5091785;28;20410;-72
2024/01/22 06:00:09;;;;;;;0.60;0.60;;;12.70;69.50;;;;;;5092003;28;20036;-72
2024/01/22 06:02:37;;;;;;;0.60;0.60;;;12.80;69.60;;;;;;5091477;28;20027;-73
2024/01/22 06:05:03;;;;;;;0.60;0.60;;;12.80;69.50;;;;;;5091403;28;20024;-72
2024/01/22 06:07:29;;;;;;;0.50;0.50;;;12.80;69.50;;;;;;5091474;28;20038;-73
2024/01/22 06:09:54;;;;;;;0.77;0.70;;;12.90;69.50;;;;;;5092218;28;20029;-72
2024/01/22 06:12:20;;;;;;;0.60;0.60;;;12.90;69.40;;;;;;5091564;28;20063;-72
2024/01/22 06:14:45;;;;;;;0.50;0.50;;;12.90;69.40;;;;;;5073522;28;20123;-73
2024/01/22 06:17:11;;;;;;;0.50;0.50;;;13.00;69.40;;;;;;5091440;28;20028;-72
2024/01/22 06:19:36;;;;;;;0.57;0.57;;;13.00;69.40;;;;;;5091739;28;20028;-72
2024/01/22 06:22:02;;;;;;;0.50;0.50;;;13.00;69.40;;;;;;5091127;28;20081;-72
2024/01/22 06:24:27;;;;;;;0.50;0.50;;;13.00;69.40;;;;;;5091831;28;20510;-72
2024/01/22 06:26:53;;;;;;;0.50;0.50;;;13.00;69.50;;;;;;5091617;28;20056;-72
2024/01/22 06:29:18;;;;;;;0.45;0.45;;;13.00;69.50;;;;;;5092243;28;20039;-72
2024/01/22 06:31:44;;;;;;;0.57;0.57;;;13.00;69.80;;;;;;5095535;28;20089;-72
2024/01/22 06:34:11;;;;;;;0.50;0.50;;;13.10;69.80;;;;;;5095495;28;20027;-72
2024/01/22 06:36:37;;;;;;;0.50;0.50;;;13.20;69.90;;;;;;5095486;28;20107;-72
2024/01/22 06:39:03;;;;;;;0.68;0.68;;;13.20;69.80;;;;;;5095449;28;20081;-72
2024/01/22 06:41:29;;;;;;;0.50;0.50;;;13.30;69.70;;;;;;5095549;28;20024;-72
2024/01/22 06:43:54;;;;;;;0.50;0.50;;;13.40;69.70;;;;;;5095550;28;20025;-71
2024/01/22 06:46:20;;;;;;;0.60;0.60;;;13.50;69.70;;;;;;5095103;28;20036;-71
2024/01/22 06:48:45;;;;;;;0.93;0.93;;;13.50;69.60;;;;;;5095180;28;20020;-71
2024/01/22 06:51:11;;;;;;;0.50;0.50;;;13.60;69.50;;;;;;5095099;28;20040;-71
2024/01/22 06:53:37;;;;;;;0.50;0.50;;;13.60;69.50;;;;;;5095037;28;20020;-71
2024/01/22 06:56:03;;;;;;;0.50;0.50;;;13.70;69.50;;;;;;5095101;28;20028;-72
2024/01/22 06:58:28;;;;;;;0.60;0.60;;;13.80;69.20;;;;;;5095261;28;20028;-71
2024/01/22 07:00:54;;;;;;;0.50;0.50;;;13.80;69.10;;;;;;5094931;28;20036;-71
2024/01/22 07:03:23;;;;;;;0.50;0.50;;;13.80;69.00;;;;;;5094980;28;20036;-71
2024/01/22 07:05:48;;;;;;;0.50;0.50;;;13.90;68.90;;;;;;5094614;28;20376;-71
2024/01/22 07:08:15;;;;;;;0.60;0.60;;;13.90;68.70;;;;;;5094702;28;20111;-71
2024/01/22 07:10:40;;;;;;;0.50;0.50;;;13.90;68.70;;;;;;5094737;28;20025;-71
2024/01/22 07:13:07;;;;;;;0.50;0.50;;;14.00;68.70;;;;;;5094517;28;20016;-70
2024/01/22 07:15:32;;;;;;;0.60;0.60;;;14.00;68.50;;;;;;5094942;28;20053;-71
2024/01/22 07:17:58;;;;;;;0.50;0.50;;;14.00;68.40;;;;;;5095073;28;20027;-71
2024/01/22 07:20:24;;;;;;;0.50;0.50;;;14.00;68.50;;;;;;5076573;28;20081;-71
2024/01/22 07:22:49;;;;;;;0.50;0.50;;;14.00;68.50;;;;;;5094299;28;20035;-70
2024/01/22 07:25:16;;;;;;;0.60;0.60;;;14.00;68.50;;;;;;5094733;28;20028;-70
2024/01/22 07:27:42;;;;;;;0.40;0.40;;;14.00;68.30;;;;;;5094461;28;20039;-70
2024/01/22 07:30:11;;;;;;;0.50;0.50;;;14.10;68.40;;;;;;5094619;28;20463;-70
2024/01/22 07:32:38;;;;;;;0.55;0.55;;;14.10;68.50;;;;;;5076380;28;20093;-70
2024/01/22 07:35:11;;;;;;;0.40;0.40;;;14.10;68.50;;;;;;5094775;28;20386;-71
2024/01/22 07:37:38;;;;;;;0.50;0.50;;;14.30;68.10;;;;;;5094323;28;20487;-70
2024/01/22 07:40:04;;;;;;;0.47;0.47;;;14.30;68.00;;;;;;5094126;28;20024;-71
2024/01/22 07:42:34;;;;;;;0.50;0.50;;;14.20;68.00;;;;;;5093429;28;20534;-71
2024/01/22 07:45:01;;;;;;;0.40;0.40;;;14.20;67.80;;;;;;5094294;28;20023;-71
2024/01/22 07:47:27;;;;;;;0.43;0.43;;;14.00;68.00;;;;;;5094139;28;20074;-71
2024/01/22 07:49:52;;;;;;;0.50;0.50;;;14.00;68.20;;;;;;5094085;28;20028;-70
2024/01/22 07:52:18;;;;;;;0.40;0.40;;;14.00;68.30;;;;;;5094334;28;20055;-71
2024/01/22 07:54:43;;;;;;;0.50;0.50;;;13.90;68.50;;;;;;5094040;28;20405;-70
2024/01/22 07:57:12;;;;;;;0.50;0.50;;;13.80;68.70;;;;;;5094147;28;20430;-71
2024/01/22 07:59:37;;;;;;;0.50;0.50;;;13.90;68.80;;;;;;5075579;28;20119;-71
2024/01/22 08:02:04;;;;;;;0.70;0.70;;;13.90;68.80;;;;;;5094334;28;20080;-71
2024/01/22 08:04:30;;;;;;;0.50;0.50;;;13.80;69.00;;;;;;5093615;28;20036;-71
2024/01/22 08:06:56;;;;;;;0.50;0.50;;;13.70;69.10;;;;;;5075786;28;20031;-72
2024/01/22 08:09:22;;;;;;;0.50;0.50;;;13.70;69.00;;;;;;5093557;28;20035;-72
2024/01/22 08:11:47;;;;;;;0.50;0.50;;;13.70;69.10;;;;;;5093967;28;20024;-72
2024/01/22 08:14:13;;;;;;;0.50;0.50;;;13.60;69.30;;;;;;5093411;28;20396;-73
2024/01/22 08:16:39;;;;;;;0.50;0.50;;;13.60;69.50;;;;;;5093751;28;20122;-73
2024/01/22 08:19:05;;;;;;;0.60;0.60;;;13.60;69.50;;;;;;5093621;28;20028;-73
2024/01/22 08:21:31;;;;;;;0.40;0.40;;;13.60;69.60;;;;;;5093834;28;20139;-73
2024/01/22 08:23:57;;;;;;;0.50;0.50;;;13.60;69.70;;;;;;5093246;28;20035;-73
2024/01/22 08:26:22;;;;;;;0.50;0.50;;;13.60;69.90;;;;;;5075103;28;20028;-73
2024/01/22 08:28:48;;;;;;;2.05;0.90;;;13.50;69.80;;;;;;5093301;28;20055;-73
2024/01/22 08:31:13;;;;;;;0.45;0.45;;;13.50;69.80;;;;;;5093229;28;20020;-72
2024/01/22 08:33:39;;;;;;;0.50;0.50;;;13.50;70.00;;;;;;5093221;28;20064;-73
2024/01/22 08:36:04;;;;;;;0.50;0.50;;;13.50;69.90;;;;;;5092718;28;20463;-73
2024/01/22 08:38:30;;;;;;;0.50;0.50;;;13.40;70.00;;;;;;5092809;28;20437;-72
2024/01/22 08:40:55;;;;;;;0.50;0.50;;;13.40;70.10;;;;;;5092716;28;20042;-73
2024/01/22 08:43:21;;;;;;;1.10;1.02;;;13.40;70.20;;;;;;5092386;28;20473;-73
2024/01/22 08:45:46;;;;;;;0.50;0.50;;;13.40;70.20;;;;;;5091348;28;20020;-73
2024/01/22 08:48:12;;;;;;;0.50;0.50;;;13.40;70.30;;;;;;5092517;28;20098;-72
2024/01/22 08:50:37;;;;;;;0.50;0.50;;;13.40;70.20;;;;;;5080299;28;20028;-72
2024/01/22 08:53:03;;;;;;;0.50;0.50;;;13.30;70.30;;;;;;5090639;28;20042;-72
2024/01/22 08:55:29;;;;;;;0.50;0.50;;;13.30;70.50;;;;;;5092502;28;20032;-72
2024/01/22 08:57:55;;;;;;;0.45;0.45;;;13.30;70.70;;;;;;5092329;28;20057;-71
2024/01/22 09:00:21;;;;;;;0.50;0.50;;;13.40;70.70;;;;;;5092378;28;20039;-72
2024/01/22 09:02:47;;;;;;;0.60;0.60;;;13.40;70.80;;;;;;5090388;28;20067;-72
2024/01/22 09:05:13;;;;;;;0.65;0.65;;;13.40;70.90;;;;;;5091926;28;20020;-72
2024/01/22 09:07:38;;;;;;;0.50;0.50;;;13.50;70.90;;;;;;5092594;28;20035;-72
2024/01/22 09:10:07;;;;;;;0.47;0.47;;;13.60;71.00;;;;;;5091885;28;20455;-71
2024/01/22 09:12:33;;;;;;;0.70;0.70;;;13.70;71.00;;;;;;5092246;28;20031;-72
2024/01/22 09:14:59;;;;;;;0.50;0.50;;;13.80;70.90;;;;;;5089307;28;20514;-72
2024/01/22 09:17:25;;;;;;;0.50;0.50;;;13.80;70.90;;;;;;5074472;28;20027;-72
2024/01/22 09:19:51;;;;;;;0.50;0.50;;;14.00;70.80;;;;;;5091956;28;20376;-72
2024/01/22 09:22:16;;;;;;;0.50;0.50;;;14.00;70.80;;;;;;5092375;28;20030;-72
2024/01/22 09:24:42;;;;;;;1.13;1.02;;;14.10;70.80;;;;;;5088802;28;20040;-72
2024/01/22 09:27:07;;;;;;;0.50;0.50;;;14.10;70.60;;;;;;5092763;28;20062;-72
2024/01/22 09:29:33;;;;;;;2.85;0.90;;;14.20;70.80;;;;;;5091782;28;20037;-72
2024/01/22 09:31:58;;;;;;;0.50;0.50;;;14.30;70.60;;;;;;5092498;28;20028;-72
2024/01/22 09:34:24;;;;;;;0.60;0.60;;;14.30;70.50;;;;;;5092009;28;20376;-72
2024/01/22 09:36:49;;;;;;;0.98;0.98;;;14.30;70.60;;;;;;5091921;28;20202;-72
2024/01/22 09:39:15;;;;;;;0.55;0.55;;;14.40;70.60;;;;;;5091824;28;20403;-72
2024/01/22 09:41:40;;;;;;;0.40;0.40;;;14.50;70.50;;;;;;5074046;28;20020;-72
2024/01/22 09:44:07;;;;;;;0.50;0.50;;;14.60;70.60;;;;;;5091909;28;20099;-72
2024/01/22 09:46:34;;;;;;;0.60;0.60;;;14.80;70.40;;;;;;5091486;28;20123;-72
2024/01/22 09:48:59;;;;;;;0.50;0.50;;;14.80;70.20;;;;;;5072872;28;20111;-72
2024/01/22 09:51:28;;;;;;;0.50;0.50;;;14.90;70.00;;;;;;5090914;28;20107;-72
2024/01/22 09:54:00;;;;;;;0.50;0.50;;;15.00;69.70;;;;;;5073807;28;20063;-72
2024/01/22 09:56:27;;;;;;;0.60;0.60;;;15.00;69.70;;;;;;5091394;28;20043;-72
2024/01/22 09:58:59;;;;;;;0.50;0.50;;;15.00;69.40;;;;;;5091608;28;20031;-72
2024/01/22 10:01:25;;;;;;;0.50;0.50;;;15.10;69.30;;;;;;5091042;28;20466;-72
2024/01/22 10:03:52;;;;;;;0.50;0.50;;;15.10;69.30;;;;;;5091194;28;20032;-72
2024/01/22 10:06:18;;;;;;;0.50;0.50;;;15.00;68.80;;;;;;5073667;28;20543;-72
2024/01/22 10:08:44;;;;;;;0.63;0.63;;;14.90;68.80;;;;;;5091489;28;20045;-73
2024/01/22 10:11:11;;;;;;;0.50;0.50;;;14.80;69.10;;;;;;5091075;28;20550;-74
2024/01/22 10:13:56;;;;;;;0.50;0.50;;;14.80;69.10;;;;;;5091215;28;20017;-74
2024/01/22 10:16:25;;;;;;;0.45;0.45;;;14.70;69.40;;;;;;5079901;28;20066;-74
2024/01/22 10:19:05;;;;;;;0.50;0.50;;;14.70;69.60;;;;;;5091073;28;20024;-73
2024/01/22 10:21:31;;;;;;;0.50;0.50;;;14.70;69.50;;;;;;5091001;28;20488;-73
2024/01/22 10:24:01;;;;;;;8.20;1.38;;;14.60;69.50;;;;;;5091466;28;20119;-74
2024/01/22 10:26:28;;;;;;;0.43;0.43;;;14.60;69.70;;;;;;5091427;28;20031;-73
2024/01/22 10:28:55;;;;;;;0.60;0.60;;;14.50;69.80;;;;;;5090316;28;20162;-73
2024/01/22 10:31:20;;;;;;;0.60;0.60;;;14.50;69.70;;;;;;5091115;28;20034;-73
2024/01/22 10:33:46;;;;;;;0.75;0.75;;;14.50;69.80;;;;;;5091266;28;20099;-73
2024/01/22 10:36:17;;;;;;;0.90;0.90;;;14.50;70.00;;;;;;5091057;28;20693;-73
2024/01/22 10:38:47;;;;;;;0.50;0.50;;;14.50;69.90;;;;;;5088010;28;20046;-73
2024/01/22 10:41:20;;;;;;;0.50;0.50;;;14.50;70.00;;;;;;5091011;28;20036;-73
2024/01/22 10:43:46;;;;;;;0.50;0.50;;;14.50;70.10;;;;;;5088858;28;20069;-73
2024/01/22 10:46:12;;;;;;;0.43;0.43;;;14.50;70.00;;;;;;5090835;28;20024;-73
2024/01/22 10:48:38;;;;;;;0.52;0.52;;;14.50;70.00;;;;;;5090717;28;20039;-73
2024/01/22 10:51:05;;;;;;;1.40;1.30;;;14.50;70.00;;;;;;5091084;28;20341;-73
2024/01/22 10:53:32;;;;;;;0.60;0.60;;;14.50;70.00;;;;;;5091165;28;20070;-73
2024/01/22 10:56:03;;;;;;;0.95;0.88;;;14.60;70.10;;;;;;5091230;28;20038;-73
2024/01/22 10:58:49;;;;;;;0.70;0.70;;;14.70;70.30;;;;;;5091232;28;20036;-73
2024/01/22 11:01:16;;;;;;;0.70;0.70;;;14.70;70.30;;;;;;5090904;28;20120;-73
2024/01/22 11:03:47;;;;;;;0.52;0.52;;;14.80;70.00;;;;;;5091104;28;20036;-73
2024/01/22 11:06:18;;;;;;;0.70;0.70;;;14.90;70.00;;;;;;5091007;28;20422;-73
2024/01/22 11:08:47;;;;;;;0.50;0.50;;;15.00;69.80;;;;;;5091349;28;20054;-73
2024/01/22 11:11:14;;;;;;;0.50;0.50;;;15.10;69.50;;;;;;5091242;28;20055;-73
2024/01/22 11:13:40;;;;;;;0.60;0.60;;;15.20;69.80;;;;;;5090900;28;20368;-73
2024/01/22 11:16:06;;;;;;;0.60;0.60;;;15.30;69.90;;;;;;5072794;28;20126;-74
2024/01/22 11:18:31;;;;;;;0.50;0.50;;;15.40;69.80;;;;;;5094808;28;20053;-72
2024/01/22 11:21:17;;;;;;;0.60;0.60;;;15.60;69.70;;;;;;5094912;28;20052;-72
2024/01/22 11:23:43;;;;;;;0.50;0.50;;;15.70;69.20;;;;;;5094543;28;20494;-72
2024/01/22 11:26:14;;;;;;;3.35;2.10;;;15.80;69.10;;;;;;5094442;28;20024;-72
2024/01/22 11:29:09;;;;;;;1.38;1.08;;;15.80;68.80;;;;;;5094513;28;20511;-72
2024/01/22 11:31:36;;;;;;;1.35;1.02;;;15.80;68.90;;;;;;5094672;28;20380;-72
2024/01/22 11:34:05;;;;;;;0.57;0.57;;;15.80;68.50;;;;;;5094531;28;20518;-73
2024/01/22 11:36:53;;;;;;;0.50;0.50;;;15.90;68.70;;;;;;5094858;28;20035;-73
2024/01/22 11:39:41;;;;;;;0.50;0.50;;;15.90;68.60;;;;;;5094376;28;20490;-72
2024/01/22 11:42:16;;;;;;;0.50;0.50;;;15.90;68.60;;;;;;5094546;28;20028;-73
2024/01/22 11:44:48;;;;;;;0.50;0.50;;;15.90;68.60;;;;;;5094124;28;20391;-72
2024/01/22 11:47:14;;;;;;;0.60;0.60;;;15.90;68.20;;;;;;5094772;28;20051;-73
2024/01/22 11:49:40;;;;;;;0.50;0.50;;;15.80;68.10;;;;;;5094135;28;20077;-73
2024/01/22 11:52:24;;;;;;;0.57;0.57;;;15.80;68.00;;;;;;5075988;28;20530;-73
2024/01/22 11:54:57;;;;;;;1.08;0.70;;;15.70;68.40;;;;;;5094036;28;20028;-73
2024/01/22 11:57:24;;;;;;;0.65;0.65;;;15.70;68.50;;;;;;5094147;28;20494;-72
2024/01/22 12:00:11;;;;;;;0.50;0.50;;;15.60;68.40;;;;;;5093985;28;20031;-73
2024/01/22 12:02:46;;;;;;;0.60;0.60;;;15.50;68.50;;;;;;5093934;28;20206;-73
2024/01/22 12:05:17;;;;;;;0.55;0.55;;;15.30;68.70;;;;;;5093526;28;20036;-72
2024/01/22 12:07:43;;;;;;;0.55;0.55;;;15.20;69.10;;;;;;5093505;28;20399;-73
2024/01/22 12:10:22;;;;;;;0.50;0.50;;;15.20;69.50;;;;;;5093576;28;20028;-73
2024/01/22 12:12:58;;;;;;;1.13;1.02;;;15.10;69.80;;;;;;5093556;28;20036;-72
2024/01/22 12:15:27;;;;;;;0.50;0.50;;;15.00;69.90;;;;;;5093598;28;20425;-72
2024/01/22 12:17:53;;;;;;;0.57;0.57;;;15.00;70.20;;;;;;5093068;28;20036;-72
2024/01/22 12:20:20;;;;;;;0.50;0.50;;;15.00;70.20;;;;;;5093325;28;20032;-73
2024/01/22 12:22:54;;;;;;;0.60;0.60;;;14.80;70.10;;;;;;5090767;28;20561;-72
2024/01/22 12:25:20;;;;;;;0.50;0.50;;;14.70;69.80;;;;;;5092411;28;20024;-72
2024/01/22 12:27:47;;;;;;;0.63;0.63;;;14.50;69.90;;;;;;5092486;28;20028;-72
2024/01/22 12:30:17;;;;;;;0.50;0.50;;;14.50;69.80;;;;;;5093239;28;20087;-72
2024/01/22 12:32:52;;;;;;;0.50;0.50;;;14.30;69.60;;;;;;5092163;28;20024;-72
2024/01/22 12:35:22;;;;;;;0.95;0.95;;;14.20;69.60;;;;;;5091667;28;20415;-72
2024/01/22 12:37:48;;;;;;;0.40;0.40;;;14.00;69.60;;;;;;5092670;28;20107;-72
2024/01/22 12:40:16;;;;;;;0.60;0.60;;;13.90;69.50;;;;;;5092851;28;20166;-72
2024/01/22 12:42:45;;;;;;;0.50;0.50;;;13.80;69.70;;;;;;5073887;28;20110;-72
2024/01/22 12:45:18;;;;;;;0.50;0.50;;;13.70;69.80;;;;;;5090646;28;20024;-72
2024/01/22 12:47:46;;;;;;;0.50;0.50;;;13.60;69.80;;;;;;5074137;28;20024;-72